createdAt,value
2023-05-22T00:00:56.248Z,58.97
2023-05-22T00:05:59.045Z,59.20
2023-05-22T00:11:01.151Z,59.07
2023-05-22T00:16:03.466Z,59.26
2023-05-22T00:21:05.920Z,59.40
2023-05-22T00:26:07.903Z,59.43
2023-05-22T00:31:09.850Z,59.91
2023-05-22T00:36:14.050Z,59.69
2023-05-22T00:41:16.425Z,59.98
2023-05-22T00:46:21.914Z,59.84
2023-05-22T00:51:25.231Z,60.08
2023-05-22T00:56:29.140Z,60.00
2023-05-22T01:01:33.984Z,60.34
2023-05-22T01:06:36.515Z,60.08
2023-05-22T01:11:50.653Z,60.53
2023-05-22T01:17:30.089Z,60.46
2023-05-22T01:23:09.164Z,60.40
2023-05-22T01:28:23.038Z,60.24
2023-05-22T01:33:26.964Z,60.26
2023-05-22T01:38:30.205Z,60.34
2023-05-22T01:43:35.410Z,60.49
2023-05-22T01:48:37.385Z,60.71
2023-05-22T01:53:46.392Z,60.59
2023-05-22T01:59:02.011Z,60.76
2023-05-22T02:04:06.786Z,60.72
2023-05-22T02:09:12.408Z,60.90
2023-05-22T02:14:18.950Z,61.36
2023-05-22T02:19:23.181Z,61.42
2023-05-22T02:24:25.647Z,61.44
2023-05-22T02:29:32.686Z,61.31
2023-05-22T02:34:35.197Z,61.33
2023-05-22T02:39:37.340Z,61.49
2023-05-22T02:44:40.325Z,61.42
2023-05-22T02:49:42.359Z,61.55
2023-05-22T02:54:44.515Z,61.89
2023-05-22T02:59:46.492Z,61.87
2023-05-22T03:04:49.221Z,62.06
2023-05-22T03:09:51.178Z,62.35
2023-05-22T03:14:53.224Z,62.28
2023-05-22T03:19:55.518Z,62.30
2023-05-22T03:24:57.733Z,62.64
2023-05-22T03:30:00.026Z,62.60
2023-05-22T03:35:02.265Z,62.66
2023-05-22T03:40:05.049Z,62.83
2023-05-22T03:45:08.054Z,62.66
2023-05-22T03:50:11.154Z,62.75
2023-05-22T03:55:13.677Z,62.52
2023-05-22T04:00:19.783Z,62.99
2023-05-22T04:05:25.120Z,63.06
2023-05-22T04:10:27.230Z,63.22
2023-05-22T04:15:29.391Z,63.34
2023-05-22T04:20:34.154Z,63.27
2023-05-22T04:25:56.790Z,63.75
2023-05-22T04:30:59.585Z,63.42
2023-05-22T04:36:02.570Z,63.58
2023-05-22T04:41:04.829Z,63.88
2023-05-22T04:46:09.080Z,63.98
2023-05-22T04:51:12.310Z,63.84
2023-05-22T04:56:21.320Z,64.02
2023-05-22T05:01:32.917Z,64.02
2023-05-22T05:06:36.019Z,63.71
2023-05-22T05:11:39.554Z,63.80
2023-05-22T05:16:42.146Z,63.92
2023-05-22T05:21:44.299Z,63.64
2023-05-22T05:26:46.599Z,63.71
2023-05-22T05:31:51.180Z,63.79
2023-05-22T05:37:07.816Z,64.04
2023-05-22T05:42:18.401Z,64.16
2023-05-22T05:47:24.311Z,64.05
2023-05-22T05:52:33.054Z,63.70
2023-05-22T05:57:39.827Z,64.03
2023-05-22T06:02:47.525Z,63.66
2023-05-22T06:08:15.832Z,64.05
2023-05-22T06:13:18.387Z,63.90
2023-05-22T06:18:21.429Z,64.25
2023-05-22T06:23:23.744Z,64.20
2023-05-22T06:28:26.433Z,63.84
2023-05-22T06:33:28.698Z,64.35
2023-05-22T06:38:32.992Z,64.34
2023-05-22T06:43:35.955Z,64.25
2023-05-22T06:48:47.738Z,64.16
2023-05-22T06:53:58.478Z,64.07
2023-05-22T06:59:06.843Z,64.12
2023-05-22T07:04:31.859Z,64.45
2023-05-22T07:09:37.038Z,63.93
2023-05-22T07:14:40.381Z,63.96
2023-05-22T07:19:43.133Z,63.29
2023-05-22T07:24:47.387Z,63.26
2023-05-22T07:29:51.347Z,63.12
2023-05-22T07:34:57.284Z,62.72
2023-05-22T07:39:59.763Z,62.62
2023-05-22T07:45:02.522Z,62.25
2023-05-22T07:50:06.020Z,61.67
2023-05-22T07:55:11.719Z,61.36
2023-05-22T08:00:17.770Z,61.40
2023-05-22T08:05:20.294Z,60.91
2023-05-22T08:10:23.218Z,60.63
2023-05-22T08:15:25.662Z,60.44
2023-05-22T08:20:28.004Z,60.04
2023-05-22T08:25:30.390Z,59.91
2023-05-22T08:30:32.545Z,59.64
2023-05-22T08:35:34.705Z,59.71
2023-05-22T08:40:38.585Z,59.35
2023-05-22T08:45:43.076Z,58.58
2023-05-22T08:50:48.377Z,57.68
2023-05-22T08:55:55.016Z,56.97
2023-05-22T09:00:58.441Z,56.66
2023-05-22T09:06:02.411Z,55.73
2023-05-22T09:11:05.081Z,54.23
2023-05-22T09:16:10.225Z,53.35
2023-05-22T09:21:28.687Z,52.53
2023-05-22T09:26:33.891Z,52.34
2023-05-22T09:31:43.153Z,50.56
2023-05-22T09:36:46.639Z,50.20
2023-05-22T09:41:49.304Z,49.64
2023-05-22T09:46:51.537Z,49.51
2023-05-22T09:51:55.340Z,48.77
2023-05-22T09:57:00.106Z,48.87
2023-05-22T10:02:03.108Z,49.09
2023-05-22T10:07:06.732Z,49.20
2023-05-22T10:12:11.004Z,49.04
2023-05-22T10:17:13.247Z,49.65
2023-05-22T10:22:21.143Z,49.85
2023-05-22T10:27:23.503Z,50.14
2023-05-22T10:32:55.294Z,50.28
2023-05-22T10:38:25.106Z,50.24
2023-05-22T10:43:32.155Z,50.11
2023-05-22T10:48:42.120Z,49.91
2023-05-22T10:53:45.554Z,49.78
2023-05-22T10:58:59.296Z,48.97
2023-05-22T11:04:12.693Z,49.19
2023-05-22T11:09:20.196Z,48.98
2023-05-22T11:14:22.562Z,48.86
2023-05-22T11:19:26.602Z,48.10
2023-05-22T11:24:34.570Z,47.58
2023-05-22T11:29:38.942Z,47.28
2023-05-22T11:34:43.269Z,47.53
2023-05-22T11:39:58.145Z,47.04
2023-05-22T11:45:00.814Z,47.17
2023-05-22T11:50:03.526Z,46.42
2023-05-22T11:55:08.090Z,46.00
2023-05-22T12:00:11.211Z,45.88
2023-05-22T12:05:16.749Z,45.95
2023-05-22T12:10:19.607Z,45.96
2023-05-22T12:15:21.752Z,45.82
2023-05-22T12:20:31.381Z,45.67
2023-05-22T12:25:39.288Z,45.30
2023-05-22T12:30:42.700Z,45.67
2023-05-22T12:35:44.836Z,45.33
2023-05-22T12:40:47.058Z,44.99
2023-05-22T12:45:49.606Z,45.14
2023-05-22T12:50:54.716Z,44.55
2023-05-22T12:55:56.847Z,44.74
2023-05-22T13:00:58.962Z,44.93
2023-05-22T13:06:01.004Z,44.69
2023-05-22T13:11:03.149Z,44.55
2023-05-22T13:16:07.550Z,44.66
2023-05-22T13:21:10.758Z,45.08
2023-05-22T13:26:13.052Z,44.96
2023-05-22T13:31:15.813Z,45.23
2023-05-22T13:36:18.640Z,45.18
2023-05-22T13:41:21.433Z,44.84
2023-05-22T13:46:23.696Z,44.80
2023-05-22T13:51:26.353Z,44.70
2023-05-22T13:56:28.512Z,44.37
2023-05-22T14:01:31.741Z,44.56
2023-05-22T14:06:34.261Z,44.71
2023-05-22T14:11:36.393Z,44.65
2023-05-22T14:16:38.742Z,44.36
2023-05-22T14:21:41.418Z,44.15
2023-05-22T14:26:53.549Z,44.09
2023-05-22T14:32:07.407Z,44.03
2023-05-22T14:37:09.573Z,43.51
2023-05-22T14:42:11.668Z,43.90
2023-05-22T14:47:16.683Z,43.75
2023-05-22T14:52:18.711Z,43.54
2023-05-22T14:57:20.857Z,43.19
2023-05-22T15:02:24.952Z,43.36
2023-05-22T15:07:39.678Z,43.07
2023-05-22T15:12:45.219Z,43.22
2023-05-22T15:17:47.375Z,43.13
2023-05-22T15:22:50.216Z,43.11
2023-05-22T15:27:52.163Z,43.05
2023-05-22T15:32:54.567Z,43.17
2023-05-22T15:38:03.824Z,42.69
2023-05-22T15:43:07.070Z,43.03
2023-05-22T15:48:09.350Z,42.99
2023-05-22T15:53:11.519Z,42.56
2023-05-22T15:58:14.123Z,42.70
2023-05-22T16:03:17.237Z,43.03
2023-05-22T16:08:19.879Z,42.94
2023-05-22T16:13:22.104Z,43.28
2023-05-22T16:18:24.493Z,43.31
2023-05-22T16:23:27.149Z,43.53
2023-05-22T16:28:29.423Z,43.34
2023-05-22T16:33:33.288Z,43.45
2023-05-22T16:38:35.595Z,44.00
2023-05-22T16:43:38.403Z,44.02
2023-05-22T16:48:41.123Z,44.19
2023-05-22T16:53:43.402Z,44.14
2023-05-22T16:58:45.521Z,44.27
2023-05-22T17:03:48.328Z,44.44
2023-05-22T17:08:51.034Z,44.91
2023-05-22T17:13:55.336Z,45.05
2023-05-22T17:18:57.639Z,45.22
2023-05-22T17:24:00.075Z,45.46
2023-05-22T17:29:02.952Z,45.27
2023-05-22T17:34:05.676Z,45.49
2023-05-22T17:39:08.839Z,45.22
2023-05-22T17:44:11.951Z,45.77
2023-05-22T17:49:14.110Z,45.43
2023-05-22T17:54:17.370Z,45.68
2023-05-22T17:59:19.412Z,45.91
2023-05-22T18:04:22.597Z,46.39
2023-05-22T18:09:24.835Z,46.10
2023-05-22T18:14:27.028Z,46.34
2023-05-22T18:19:29.286Z,46.58
2023-05-22T18:24:33.034Z,46.60
2023-05-22T18:29:35.202Z,46.79
2023-05-22T18:34:37.870Z,47.10
2023-05-22T18:39:40.037Z,47.09
2023-05-22T18:44:42.161Z,47.21
2023-05-22T18:49:44.640Z,46.95
2023-05-22T18:54:46.998Z,47.17
2023-05-22T18:59:49.872Z,47.23
2023-05-22T19:04:51.993Z,47.61
2023-05-22T19:09:54.611Z,47.56
2023-05-22T19:14:56.779Z,47.61
2023-05-22T19:19:58.737Z,47.36
2023-05-22T19:25:02.360Z,47.50
2023-05-22T19:30:05.439Z,47.47
2023-05-22T19:35:07.968Z,47.49
2023-05-22T19:40:11.450Z,47.57
2023-05-22T19:45:13.476Z,47.30
2023-05-22T19:50:15.641Z,47.96
2023-05-22T19:55:18.953Z,47.91
2023-05-22T20:00:21.282Z,48.16
2023-05-22T20:05:23.632Z,48.48
2023-05-22T20:10:26.736Z,48.86
2023-05-22T20:15:30.607Z,49.15
2023-05-22T20:20:32.660Z,49.33
2023-05-22T20:25:34.589Z,49.50
2023-05-22T20:30:36.628Z,49.73
2023-05-22T20:35:38.917Z,49.82
2023-05-22T20:40:46.743Z,49.73
2023-05-22T20:45:48.744Z,50.28
2023-05-22T20:50:50.927Z,50.59
2023-05-22T20:55:53.390Z,50.54
2023-05-22T21:00:56.288Z,50.48
2023-05-22T21:05:58.459Z,50.89
2023-05-22T21:11:00.829Z,50.84
2023-05-22T21:16:02.792Z,50.99
2023-05-22T21:21:04.932Z,51.25
2023-05-22T21:26:06.870Z,51.11
2023-05-22T21:31:08.993Z,51.68
2023-05-22T21:36:11.066Z,51.69
2023-05-22T21:41:13.776Z,51.98
2023-05-22T21:46:15.779Z,52.29
2023-05-22T21:51:21.514Z,52.41
2023-05-22T21:56:28.402Z,52.52
2023-05-22T22:01:32.537Z,52.97
2023-05-22T22:06:41.064Z,53.18
2023-05-22T22:11:43.025Z,52.74
2023-05-22T22:16:45.577Z,52.99
2023-05-22T22:21:47.590Z,52.70
2023-05-22T22:26:49.577Z,52.53
2023-05-22T22:31:52.973Z,52.96
2023-05-22T22:36:55.006Z,52.91
2023-05-22T22:42:04.311Z,53.01
2023-05-22T22:47:13.037Z,52.96
2023-05-22T22:52:15.006Z,53.21
2023-05-22T22:57:17.115Z,53.14
2023-05-22T23:02:19.065Z,53.29
2023-05-22T23:07:24.101Z,53.22
2023-05-22T23:12:26.433Z,53.32
2023-05-22T23:17:28.636Z,53.55
2023-05-22T23:22:30.701Z,53.80
2023-05-22T23:27:32.637Z,53.87
2023-05-22T23:32:34.977Z,54.25
2023-05-22T23:37:37.631Z,54.38
2023-05-22T23:43:10.982Z,54.69
2023-05-22T23:48:13.993Z,54.81
2023-05-22T23:53:15.811Z,54.69
2023-05-22T23:58:17.914Z,54.92
